createdAt,value
2022-12-20T00:02:04.935Z,13.69
2022-12-20T00:04:32.750Z,13.78
2022-12-20T00:07:00.585Z,13.73
2022-12-20T00:09:29.052Z,13.62
2022-12-20T00:11:58.195Z,13.81
2022-12-20T00:14:25.945Z,13.59
2022-12-20T00:16:53.795Z,13.84
2022-12-20T00:19:21.545Z,13.76
2022-12-20T00:21:49.287Z,13.52
2022-12-20T00:24:22.225Z,13.69
2022-12-20T00:26:53.495Z,13.55
2022-12-20T00:29:22.653Z,13.65
2022-12-20T00:31:50.577Z,13.74
2022-12-20T00:34:18.617Z,13.72
2022-12-20T00:36:46.384Z,13.72
2022-12-20T00:39:14.188Z,13.78
2022-12-20T00:41:41.993Z,13.72
2022-12-20T00:44:09.713Z,13.93
2022-12-20T00:46:39.195Z,13.97
2022-12-20T00:49:07.454Z,13.87
2022-12-20T00:51:35.286Z,13.76
2022-12-20T00:54:03.023Z,13.76
2022-12-20T00:56:30.852Z,13.92
2022-12-20T00:58:59.529Z,13.87
2022-12-20T01:01:30.351Z,13.70
2022-12-20T01:04:00.585Z,13.91
2022-12-20T01:06:29.022Z,13.95
2022-12-20T01:08:57.570Z,13.91
2022-12-20T01:11:27.390Z,13.96
2022-12-20T01:13:57.259Z,13.85
2022-12-20T01:16:27.087Z,13.74
2022-12-20T01:18:55.079Z,13.90
2022-12-20T01:21:26.365Z,13.96
2022-12-20T01:23:54.808Z,13.86
2022-12-20T01:26:23.752Z,13.97
2022-12-20T01:28:54.189Z,14.01
2022-12-20T01:31:22.392Z,13.86
2022-12-20T01:33:51.133Z,13.86
2022-12-20T01:36:20.675Z,13.87
2022-12-20T01:38:49.755Z,13.68
2022-12-20T01:41:19.090Z,13.53
2022-12-20T01:43:50.970Z,13.46
2022-12-20T01:46:19.918Z,13.70
2022-12-20T01:48:52.007Z,13.80
2022-12-20T01:51:20.335Z,13.66
2022-12-20T01:53:50.130Z,13.50
2022-12-20T01:56:17.876Z,13.52
2022-12-20T01:58:47.480Z,13.82
2022-12-20T02:01:15.209Z,13.68
2022-12-20T02:03:43.687Z,13.43
2022-12-20T02:06:18.074Z,13.21
2022-12-20T02:08:47.538Z,13.35
2022-12-20T02:11:29.744Z,13.19
2022-12-20T02:14:06.292Z,13.17
2022-12-20T02:16:45.679Z,13.35
2022-12-20T02:19:26.574Z,13.23
2022-12-20T02:21:56.597Z,13.37
2022-12-20T02:24:42.592Z,13.13
2022-12-20T02:27:28.001Z,13.34
2022-12-20T02:30:06.754Z,13.30
2022-12-20T02:32:38.408Z,13.28
2022-12-20T02:35:08.657Z,13.54
2022-12-20T02:37:36.992Z,13.37
2022-12-20T02:40:06.292Z,13.37
2022-12-20T02:42:34.711Z,13.18
2022-12-20T02:45:16.187Z,12.86
2022-12-20T02:47:50.321Z,12.79
2022-12-20T02:50:21.577Z,12.70
2022-12-20T02:52:49.923Z,12.74
2022-12-20T02:55:18.938Z,12.64
2022-12-20T02:57:58.012Z,12.63
2022-12-20T03:00:34.166Z,12.82
2022-12-20T03:03:19.920Z,12.81
2022-12-20T03:05:48.964Z,12.90
2022-12-20T03:08:20.237Z,12.94
2022-12-20T03:10:50.183Z,12.96
2022-12-20T03:13:18.034Z,13.06
2022-12-20T03:16:04.279Z,12.88
2022-12-20T03:18:32.021Z,13.02
2022-12-20T03:20:59.816Z,13.14
2022-12-20T03:23:27.729Z,13.11
2022-12-20T03:25:55.531Z,12.79
2022-12-20T03:28:31.515Z,13.04
2022-12-20T03:30:59.351Z,13.04
2022-12-20T03:33:28.537Z,13.13
2022-12-20T03:35:59.695Z,12.90
2022-12-20T03:38:27.618Z,12.87
2022-12-20T03:40:55.387Z,12.93
2022-12-20T03:43:23.831Z,12.94
2022-12-20T03:45:51.652Z,12.90
2022-12-20T03:48:20.188Z,12.80
2022-12-20T03:50:50.393Z,12.73
2022-12-20T03:53:18.281Z,12.71
2022-12-20T03:55:46.127Z,12.92
2022-12-20T03:58:14.945Z,12.83
2022-12-20T04:00:43.216Z,12.88
2022-12-20T04:03:33.221Z,12.76
2022-12-20T04:06:02.383Z,12.66
2022-12-20T04:08:30.169Z,12.51
2022-12-20T04:11:15.544Z,12.66
2022-12-20T04:13:50.182Z,12.55
2022-12-20T04:16:22.018Z,12.50
2022-12-20T04:18:50.075Z,12.70
2022-12-20T04:21:22.943Z,12.60
2022-12-20T04:23:52.512Z,12.59
2022-12-20T04:26:20.578Z,12.47
2022-12-20T04:28:48.759Z,12.61
2022-12-20T04:31:23.283Z,12.74
2022-12-20T04:33:52.525Z,12.58
2022-12-20T04:36:22.738Z,12.69
2022-12-20T04:38:52.873Z,12.39
2022-12-20T04:41:23.670Z,12.56
2022-12-20T04:44:02.221Z,12.63
2022-12-20T04:46:36.541Z,12.35
2022-12-20T04:49:05.931Z,12.52
2022-12-20T04:51:37.212Z,12.31
2022-12-20T04:54:05.769Z,12.36
2022-12-20T04:56:42.028Z,12.59
2022-12-20T04:59:12.573Z,12.45
2022-12-20T05:01:42.963Z,12.60
2022-12-20T05:04:12.046Z,12.48
2022-12-20T05:06:41.380Z,12.25
2022-12-20T05:09:09.291Z,12.41
2022-12-20T05:11:37.104Z,12.35
2022-12-20T05:14:08.566Z,12.35
2022-12-20T05:16:37.483Z,12.46
2022-12-20T05:19:07.376Z,12.45
2022-12-20T05:21:58.756Z,12.28
2022-12-20T05:24:44.154Z,12.39
2022-12-20T05:27:38.140Z,12.29
2022-12-20T05:30:07.571Z,12.10
2022-12-20T05:32:35.424Z,12.29
2022-12-20T05:35:03.275Z,12.15
2022-12-20T05:37:33.657Z,12.29
2022-12-20T05:40:10.426Z,12.24
2022-12-20T05:42:38.646Z,12.06
2022-12-20T05:45:08.028Z,12.34
2022-12-20T05:47:44.733Z,12.25
2022-12-20T05:50:18.560Z,12.44
2022-12-20T05:53:11.667Z,12.16
2022-12-20T05:55:45.791Z,12.14
2022-12-20T05:58:14.368Z,12.17
2022-12-20T06:00:51.650Z,12.12
2022-12-20T06:03:20.413Z,12.20
2022-12-20T06:05:48.283Z,12.34
2022-12-20T06:08:24.572Z,12.31
2022-12-20T06:10:53.630Z,12.28
2022-12-20T06:13:22.861Z,12.00
2022-12-20T06:15:53.418Z,11.95
2022-12-20T06:18:21.895Z,11.90
2022-12-20T06:20:52.514Z,11.93
2022-12-20T06:23:24.961Z,12.05
2022-12-20T06:26:04.363Z,12.04
2022-12-20T06:28:35.227Z,11.96
2022-12-20T06:31:03.585Z,11.93
2022-12-20T06:33:51.701Z,12.00
2022-12-20T06:36:22.071Z,12.08
2022-12-20T06:38:51.511Z,12.11
2022-12-20T06:41:19.457Z,12.10
2022-12-20T06:43:47.461Z,12.09
2022-12-20T06:46:15.339Z,12.09
2022-12-20T06:48:44.911Z,12.38
2022-12-20T06:51:13.722Z,12.08
2022-12-20T06:53:41.618Z,12.28
2022-12-20T06:56:10.864Z,12.30
2022-12-20T06:58:38.577Z,12.37
2022-12-20T07:01:06.804Z,12.53
2022-12-20T07:03:34.616Z,12.45
2022-12-20T07:06:02.380Z,12.52
2022-12-20T07:08:30.146Z,12.36
2022-12-20T07:10:57.934Z,12.52
2022-12-20T07:13:27.052Z,12.67
2022-12-20T07:15:59.240Z,12.51
2022-12-20T07:18:27.100Z,12.54
2022-12-20T07:20:54.849Z,12.46
2022-12-20T07:23:22.657Z,12.40
2022-12-20T07:25:55.234Z,12.52
2022-12-20T07:28:23.640Z,12.63
2022-12-20T07:30:55.618Z,12.63
2022-12-20T07:33:23.415Z,12.54
2022-12-20T07:35:54.762Z,12.48
2022-12-20T07:38:22.831Z,12.55
2022-12-20T07:40:50.650Z,12.41
2022-12-20T07:43:18.418Z,12.46
2022-12-20T07:45:47.493Z,12.49
2022-12-20T07:48:21.600Z,12.61
2022-12-20T07:50:49.886Z,12.50
2022-12-20T07:53:17.946Z,12.51
2022-12-20T07:55:45.776Z,12.74
2022-12-20T07:58:14.637Z,12.78
2022-12-20T08:00:42.492Z,12.89
2022-12-20T08:03:15.472Z,12.87
2022-12-20T08:05:47.750Z,12.99
2022-12-20T08:08:16.212Z,12.95
2022-12-20T08:10:44.743Z,13.13
2022-12-20T08:13:12.504Z,13.17
2022-12-20T08:15:40.266Z,13.26
2022-12-20T08:18:08.115Z,13.25
2022-12-20T08:20:35.824Z,13.00
2022-12-20T08:23:05.655Z,13.20
2022-12-20T08:25:41.298Z,13.16
2022-12-20T08:28:09.789Z,13.14
2022-12-20T08:30:37.972Z,13.18
2022-12-20T08:33:06.427Z,13.40
2022-12-20T08:35:34.201Z,13.55
2022-12-20T08:38:02.068Z,13.26
2022-12-20T08:40:31.571Z,13.26
2022-12-20T08:43:02.406Z,13.21
2022-12-20T08:45:34.379Z,13.33
2022-12-20T08:48:02.110Z,13.47
2022-12-20T08:50:29.861Z,13.37
2022-12-20T08:52:57.599Z,13.38
2022-12-20T08:55:29.093Z,13.55
2022-12-20T08:57:58.831Z,13.60
2022-12-20T09:00:26.604Z,13.76
2022-12-20T09:02:55.078Z,13.81
2022-12-20T09:05:23.003Z,13.76
2022-12-20T09:07:50.724Z,13.89
2022-12-20T09:10:18.451Z,13.79
2022-12-20T09:12:46.151Z,13.44
2022-12-20T09:15:15.289Z,13.45
2022-12-20T09:17:43.013Z,13.57
2022-12-20T09:20:11.473Z,13.68
2022-12-20T09:22:40.067Z,13.64
2022-12-20T09:25:08.801Z,13.60
2022-12-20T09:27:36.561Z,13.46
2022-12-20T09:30:04.895Z,13.72
2022-12-20T09:32:34.007Z,13.57
2022-12-20T09:35:01.759Z,13.69
2022-12-20T09:37:31.103Z,13.77
2022-12-20T09:39:58.986Z,13.71
2022-12-20T09:42:28.498Z,13.82
2022-12-20T09:45:02.369Z,13.84
2022-12-20T09:47:30.148Z,13.57
2022-12-20T09:49:59.293Z,13.80
2022-12-20T09:52:35.947Z,14.00
2022-12-20T09:55:13.934Z,14.05
2022-12-20T09:57:53.425Z,13.78
2022-12-20T10:00:22.223Z,13.81
2022-12-20T10:03:06.597Z,13.89
2022-12-20T10:05:43.896Z,13.80
2022-12-20T10:08:17.593Z,13.98
2022-12-20T10:10:55.102Z,14.11
2022-12-20T10:13:42.029Z,14.30
2022-12-20T10:16:29.272Z,14.43
2022-12-20T10:19:05.409Z,14.14
2022-12-20T10:21:42.834Z,14.12
2022-12-20T10:24:15.251Z,14.30
2022-12-20T10:26:43.408Z,14.26
2022-12-20T10:29:11.176Z,14.52
2022-12-20T10:31:39.848Z,14.65
2022-12-20T10:34:07.924Z,14.60
2022-12-20T10:36:37.962Z,14.53
2022-12-20T10:39:07.031Z,14.53
2022-12-20T10:41:35.820Z,14.81
2022-12-20T10:44:05.814Z,14.72
2022-12-20T10:46:38.948Z,14.73
2022-12-20T10:49:31.023Z,14.52
2022-12-20T10:52:02.901Z,14.67
2022-12-20T10:54:33.457Z,14.57
2022-12-20T10:57:02.653Z,14.77
2022-12-20T10:59:34.441Z,14.80
2022-12-20T11:02:02.409Z,14.99
2022-12-20T11:04:32.204Z,15.08
2022-12-20T11:07:02.019Z,15.19
2022-12-20T11:09:31.962Z,15.39
2022-12-20T11:12:05.899Z,15.63
2022-12-20T11:14:39.193Z,15.72
2022-12-20T11:17:18.866Z,15.63
2022-12-20T11:19:59.349Z,15.42
2022-12-20T11:22:35.911Z,15.28
2022-12-20T11:25:14.423Z,15.46
2022-12-20T11:27:48.675Z,15.31
2022-12-20T11:30:19.643Z,15.69
2022-12-20T11:33:05.963Z,15.40
2022-12-20T11:35:42.907Z,15.48
2022-12-20T11:38:18.957Z,15.60
2022-12-20T11:40:52.887Z,15.42
2022-12-20T11:43:28.768Z,15.50
2022-12-20T11:46:08.588Z,15.61
2022-12-20T11:49:01.295Z,15.42
2022-12-20T11:51:35.290Z,15.48
2022-12-20T11:54:11.883Z,15.52
2022-12-20T11:56:44.659Z,15.47
2022-12-20T11:59:19.280Z,15.33
2022-12-20T12:01:51.455Z,15.34
2022-12-20T12:04:22.620Z,15.12
2022-12-20T12:06:54.831Z,15.18
2022-12-20T12:09:28.659Z,15.04
2022-12-20T12:12:07.428Z,15.07
2022-12-20T12:14:51.490Z,15.09
2022-12-20T12:17:25.946Z,15.35
2022-12-20T12:19:55.923Z,14.93
2022-12-20T12:22:28.385Z,15.07
2022-12-20T12:24:59.405Z,15.42
2022-12-20T12:27:29.300Z,14.86
2022-12-20T12:29:59.120Z,14.90
2022-12-20T12:32:31.603Z,15.16
2022-12-20T12:35:11.946Z,14.78
2022-12-20T12:38:11.504Z,14.66
2022-12-20T12:40:54.035Z,14.68
2022-12-20T12:43:40.186Z,14.52
2022-12-20T12:46:14.424Z,14.38
2022-12-20T12:48:44.654Z,14.46
2022-12-20T12:51:13.473Z,14.41
2022-12-20T12:53:44.413Z,14.47
2022-12-20T12:56:46.719Z,14.58
2022-12-20T12:59:41.592Z,14.73
2022-12-20T13:02:34.022Z,14.92
2022-12-20T13:05:26.278Z,15.08
2022-12-20T13:07:54.951Z,15.07
2022-12-20T13:10:58.367Z,14.66
2022-12-20T13:13:27.657Z,14.57
2022-12-20T13:16:14.832Z,14.50
2022-12-20T13:19:06.255Z,14.64
2022-12-20T13:21:38.595Z,14.36
2022-12-20T13:24:37.252Z,14.33
2022-12-20T13:27:15.655Z,14.54
2022-12-20T13:30:02.424Z,14.51
2022-12-20T13:32:56.006Z,14.34
2022-12-20T13:35:45.816Z,13.99
2022-12-20T13:38:37.474Z,14.06
2022-12-20T13:41:13.833Z,13.91
2022-12-20T13:43:44.383Z,13.93
2022-12-20T13:46:16.482Z,14.10
2022-12-20T13:48:51.462Z,13.82
2022-12-20T13:51:21.473Z,13.76
2022-12-20T13:53:53.884Z,13.61
2022-12-20T13:56:34.082Z,13.52
2022-12-20T13:59:06.021Z,13.50
2022-12-20T14:01:36.180Z,13.56
2022-12-20T14:04:07.323Z,13.44
2022-12-20T14:06:35.833Z,13.60
2022-12-20T14:09:05.700Z,13.77
2022-12-20T14:11:33.506Z,13.68
2022-12-20T14:14:03.308Z,13.77
2022-12-20T14:16:32.148Z,14.06
2022-12-20T14:19:05.496Z,13.95
2022-12-20T14:21:36.105Z,13.89
2022-12-20T14:24:04.514Z,13.89
2022-12-20T14:26:37.163Z,13.92
2022-12-20T14:29:11.407Z,13.82
2022-12-20T14:31:41.773Z,13.62
2022-12-20T14:34:17.545Z,13.65
2022-12-20T14:36:47.316Z,13.62
2022-12-20T14:39:26.114Z,13.53
2022-12-20T14:41:58.093Z,13.84
2022-12-20T14:44:27.338Z,13.87
2022-12-20T14:46:56.777Z,13.58
2022-12-20T14:49:30.072Z,13.82
2022-12-20T14:52:07.744Z,13.90
2022-12-20T14:57:26.117Z,13.54
2022-12-20T15:00:02.841Z,13.48
2022-12-20T15:02:41.203Z,13.25
2022-12-20T15:05:39.044Z,13.21
2022-12-20T15:08:18.566Z,13.04
2022-12-20T15:10:55.089Z,13.16
2022-12-20T15:13:25.402Z,13.08
2022-12-20T15:15:53.216Z,12.76
2022-12-20T15:18:21.691Z,12.69
2022-12-20T15:20:58.365Z,12.84
2022-12-20T15:23:26.128Z,12.89
2022-12-20T15:25:54.014Z,12.82
2022-12-20T15:28:23.769Z,13.07
2022-12-20T15:30:52.631Z,13.15
2022-12-20T15:33:23.159Z,13.18
2022-12-20T15:35:52.878Z,13.23
2022-12-20T15:38:40.686Z,13.32
2022-12-20T15:41:14.855Z,13.16
2022-12-20T15:43:42.599Z,13.03
2022-12-20T15:46:10.586Z,13.17
2022-12-20T15:48:38.429Z,13.32
2022-12-20T15:51:16.352Z,13.27
2022-12-20T15:53:44.255Z,13.40
2022-12-20T15:56:18.693Z,13.12
2022-12-20T15:58:47.380Z,13.03
2022-12-20T16:01:17.548Z,13.23
2022-12-20T16:03:45.876Z,13.34
2022-12-20T16:06:15.382Z,13.22
2022-12-20T16:08:43.501Z,13.24
2022-12-20T16:11:20.382Z,13.34
2022-12-20T16:13:48.327Z,13.42
2022-12-20T16:16:18.217Z,13.39
2022-12-20T16:18:46.210Z,13.63
2022-12-20T16:21:18.690Z,13.64
2022-12-20T16:23:46.774Z,13.47
2022-12-20T16:26:16.078Z,13.40
2022-12-20T16:28:44.419Z,13.26
2022-12-20T16:31:21.639Z,13.19
2022-12-20T16:33:49.471Z,12.86
2022-12-20T16:36:18.607Z,12.86
2022-12-20T16:38:46.330Z,12.84
2022-12-20T16:41:15.540Z,12.88
2022-12-20T16:43:43.322Z,12.98
2022-12-20T16:46:13.306Z,12.95
2022-12-20T16:48:41.744Z,12.98
2022-12-20T16:51:26.055Z,13.07
2022-12-20T16:54:17.955Z,13.32
2022-12-20T16:56:42.061Z,13.38
2022-12-20T16:59:25.117Z,13.08
2022-12-20T17:01:54.547Z,13.23
2022-12-20T17:04:26.638Z,13.17
2022-12-20T17:06:55.871Z,13.04
2022-12-20T17:12:15.463Z,12.94
2022-12-20T17:14:43.266Z,13.20
2022-12-20T17:17:11.048Z,13.17
2022-12-20T17:19:39.326Z,13.33
2022-12-20T17:22:23.803Z,13.32
2022-12-20T17:24:51.597Z,13.15
2022-12-20T17:27:19.472Z,13.15
2022-12-20T17:29:47.183Z,13.38
2022-12-20T17:32:20.709Z,13.49
2022-12-20T17:34:48.791Z,13.70
2022-12-20T17:37:18.628Z,13.57
2022-12-20T17:39:46.445Z,13.70
2022-12-20T17:42:14.456Z,13.66
2022-12-20T17:44:42.290Z,13.57
2022-12-20T17:47:11.492Z,13.57
2022-12-20T17:49:39.441Z,13.50
2022-12-20T17:52:07.206Z,13.22
2022-12-20T17:54:40.041Z,13.35
2022-12-20T17:57:13.938Z,13.48
2022-12-20T17:59:42.339Z,13.03
2022-12-20T18:02:21.235Z,12.98
2022-12-20T18:04:49.197Z,13.03
2022-12-20T18:07:17.094Z,13.23
2022-12-20T18:09:47.377Z,13.18
2022-12-20T18:12:15.219Z,13.09
2022-12-20T18:14:42.991Z,13.04
2022-12-20T18:17:10.914Z,13.14
2022-12-20T18:19:39.553Z,13.19
2022-12-20T18:22:07.451Z,12.88
2022-12-20T18:24:35.239Z,13.12
2022-12-20T18:27:04.638Z,13.15
2022-12-20T18:29:32.563Z,13.11
2022-12-20T18:32:00.475Z,12.95
2022-12-20T18:34:28.241Z,13.16
2022-12-20T18:36:56.066Z,13.15
2022-12-20T18:39:23.867Z,13.17
2022-12-20T18:41:51.744Z,13.25
2022-12-20T18:44:21.041Z,13.46
2022-12-20T18:46:48.889Z,13.31
2022-12-20T18:49:16.763Z,13.25
2022-12-20T18:51:44.649Z,13.09
2022-12-20T18:54:14.071Z,13.17
2022-12-20T18:56:42.150Z,13.35
2022-12-20T18:59:12.714Z,13.31
2022-12-20T19:01:43.580Z,13.12
2022-12-20T19:04:12.002Z,13.36
2022-12-20T19:06:40.074Z,12.98
2022-12-20T19:09:09.523Z,13.13
2022-12-20T19:11:37.551Z,13.14
2022-12-20T19:14:05.422Z,13.32
2022-12-20T19:16:33.553Z,13.08
2022-12-20T19:19:03.762Z,13.16
2022-12-20T19:21:33.137Z,13.17
2022-12-20T19:24:05.013Z,12.99
2022-12-20T19:26:32.872Z,13.10
2022-12-20T19:29:00.691Z,13.14
2022-12-20T19:31:30.661Z,13.38
2022-12-20T19:34:00.348Z,13.20
2022-12-20T19:36:31.281Z,13.15
2022-12-20T19:39:01.270Z,13.21
2022-12-20T19:41:30.890Z,13.49
2022-12-20T19:43:58.874Z,13.43
2022-12-20T19:46:29.782Z,13.31
2022-12-20T19:48:58.879Z,13.13
2022-12-20T19:51:29.185Z,13.41
2022-12-20T19:53:57.887Z,13.08
2022-12-20T19:56:27.300Z,13.36
2022-12-20T19:58:56.046Z,13.34
2022-12-20T20:01:26.161Z,13.20
2022-12-20T20:03:54.327Z,13.02
2022-12-20T20:06:22.588Z,13.07
2022-12-20T20:08:51.796Z,13.21
2022-12-20T20:11:20.950Z,13.07
2022-12-20T20:13:49.005Z,13.13
2022-12-20T20:16:21.888Z,13.10
2022-12-20T20:18:50.106Z,13.06
2022-12-20T20:21:21.177Z,13.31
2022-12-20T20:23:50.930Z,13.21
2022-12-20T20:26:20.753Z,13.21
2022-12-20T20:28:48.638Z,13.24
2022-12-20T20:31:17.846Z,13.07
2022-12-20T20:33:46.753Z,13.35
2022-12-20T20:36:16.560Z,13.36
2022-12-20T20:38:44.517Z,13.32
2022-12-20T20:41:14.945Z,13.04
2022-12-20T20:43:43.393Z,12.99
2022-12-20T20:46:13.236Z,12.98
2022-12-20T20:48:41.559Z,12.94
2022-12-20T20:51:09.719Z,12.89
2022-12-20T20:53:37.835Z,13.00
2022-12-20T20:56:06.685Z,12.94
2022-12-20T20:58:36.593Z,12.84
2022-12-20T21:01:08.302Z,12.87
2022-12-20T21:03:36.420Z,13.01
2022-12-20T21:08:52.254Z,13.32
2022-12-20T21:11:20.174Z,13.46
2022-12-20T21:13:49.477Z,13.21
2022-12-20T21:16:20.378Z,13.39
2022-12-20T21:18:51.784Z,13.04
2022-12-20T21:21:20.256Z,12.92
2022-12-20T21:23:49.034Z,13.10
2022-12-20T21:26:18.673Z,12.99
2022-12-20T21:28:46.624Z,13.14
2022-12-20T21:31:17.817Z,12.89
2022-12-20T21:33:46.175Z,12.79
2022-12-20T21:36:15.624Z,12.82
2022-12-20T21:38:43.833Z,13.04
2022-12-20T21:41:13.267Z,12.90
2022-12-20T21:43:41.105Z,13.19
2022-12-20T21:46:11.252Z,13.19
2022-12-20T21:48:42.152Z,13.13
2022-12-20T21:51:11.538Z,13.16
2022-12-20T21:53:43.423Z,13.23
2022-12-20T21:56:11.737Z,13.16
2022-12-20T21:58:39.535Z,13.12
2022-12-20T22:01:08.177Z,13.06
2022-12-20T22:03:36.853Z,13.17
2022-12-20T22:06:06.528Z,13.48
2022-12-20T22:08:35.291Z,13.46
2022-12-20T22:11:05.128Z,13.53
2022-12-20T22:13:40.486Z,13.46
2022-12-20T22:16:09.706Z,13.33
2022-12-20T22:18:38.063Z,13.51
2022-12-20T22:21:09.226Z,13.48
2022-12-20T22:23:38.139Z,13.38
2022-12-20T22:26:07.197Z,13.69
2022-12-20T22:28:35.134Z,13.62
2022-12-20T22:31:07.491Z,13.62
2022-12-20T22:33:35.624Z,13.91
2022-12-20T22:36:03.599Z,13.72
2022-12-20T22:38:32.854Z,13.78
2022-12-20T22:41:07.962Z,13.82
2022-12-20T22:43:35.656Z,13.65
2022-12-20T22:46:03.737Z,13.58
2022-12-20T22:48:32.030Z,13.79
2022-12-20T22:51:00.471Z,13.55
2022-12-20T22:53:28.592Z,13.41
2022-12-20T22:55:57.710Z,13.55
2022-12-20T22:58:25.543Z,13.63
2022-12-20T23:00:53.304Z,13.50
2022-12-20T23:03:21.238Z,13.55
2022-12-20T23:05:53.055Z,13.37
2022-12-20T23:08:21.250Z,13.50
2022-12-20T23:11:06.644Z,13.65
2022-12-20T23:13:53.248Z,13.58
2022-12-20T23:16:21.294Z,13.46
2022-12-20T23:18:49.028Z,13.20
2022-12-20T23:21:34.568Z,13.31
2022-12-20T23:24:02.304Z,13.57
2022-12-20T23:26:30.042Z,13.66
2022-12-20T23:28:59.169Z,13.59
2022-12-20T23:31:26.885Z,13.51
2022-12-20T23:33:54.621Z,13.48
2022-12-20T23:36:22.354Z,13.43
2022-12-20T23:38:50.153Z,13.49
2022-12-20T23:41:17.951Z,13.35
2022-12-20T23:43:45.706Z,13.40
2022-12-20T23:46:16.627Z,13.50
2022-12-20T23:48:44.761Z,13.56
2022-12-20T23:51:12.605Z,13.52
2022-12-20T23:53:40.523Z,13.39
2022-12-20T23:56:10.806Z,13.67
2022-12-20T23:58:39.169Z,13.43
